Time;durP1;ratioP1;P1;durP2;ratioP2;P2;SDS_P1;SDS_P2;PMS_P1;PMS_P2;Temp;Humidity;BMP_temperature;BMP_pressure;BME280_temperature;BME280_humidity;BME280_pressure;Samples;Min_cycle;Max_cycle;Signal;HPM_P1;HPM_P2
2022/02/16 00:00:28;;;;;;;32.75;17.33;;;;;;;2.46;74.26;93741.78;5091897;28;20024;-39
2022/02/16 00:02:53;;;;;;;30.23;18.33;;;;;;;2.44;74.36;93740.78;5091526;28;20016;-41
2022/02/16 00:05:19;;;;;;;38.30;20.98;;;;;;;2.51;74.66;93743.03;5091852;28;20024;-40
2022/02/16 00:07:44;;;;;;;29.27;18.77;;;;;;;2.46;74.46;93736.34;5106075;28;20503;-40
2022/02/16 00:10:12;;;;;;;31.77;18.92;;;;;;;2.63;74.33;93728.97;5112126;28;20031;-40
2022/02/16 00:12:38;;;;;;;29.38;19.23;;;;;;;2.56;74.57;93723.97;5111829;28;20031;-39
2022/02/16 00:15:05;;;;;;;29.65;18.52;;;;;;;2.57;74.22;93730.19;5112036;28;20031;-38
2022/02/16 00:17:30;;;;;;;28.00;17.90;;;;;;;2.29;73.41;93732.78;5111723;28;20512;-41
2022/02/16 00:19:56;;;;;;;30.80;19.15;;;;;;;2.42;73.24;93735.06;5111642;28;20024;-37
2022/02/16 00:22:21;;;;;;;30.23;17.92;;;;;;;2.64;73.17;93727.00;5111955;28;20019;-39
2022/02/16 00:24:46;;;;;;;36.65;19.60;;;;;;;2.75;72.94;93732.47;5111921;28;20043;-41
2022/02/16 00:27:12;;;;;;;35.78;19.20;;;;;;;2.71;73.47;93721.78;5111846;28;20027;-39
2022/02/16 00:29:37;;;;;;;32.67;18.63;;;;;;;2.75;73.05;93714.13;5111681;28;20473;-38
2022/02/16 00:32:03;;;;;;;29.52;18.52;;;;;;;2.58;72.14;93718.78;5111777;28;20386;-37
2022/02/16 00:34:28;;;;;;;32.38;19.65;;;;;;;2.37;74.00;93719.44;5111732;28;20019;-38
2022/02/16 00:36:56;;;;;;;31.10;20.08;;;;;;;2.22;73.69;93711.44;5100378;28;20020;-39
2022/02/16 00:39:22;;;;;;;33.70;19.08;;;;;;;2.33;73.08;93697.13;5037039;28;1563565;-37
2022/02/16 00:41:47;;;;;;;30.35;19.17;;;;;;;2.29;72.92;93711.00;5092145;28;20036;-40
2022/02/16 00:44:12;;;;;;;28.23;18.60;;;;;;;2.34;72.66;93710.25;5092286;28;20421;-37
2022/02/16 00:46:38;;;;;;;40.42;21.38;;;;;;;2.09;73.51;93714.63;5092129;28;20489;-40
2022/02/16 00:49:03;;;;;;;40.42;22.27;;;;;;;1.81;75.65;93707.53;5091626;28;20116;-37
2022/02/16 00:51:29;;;;;;;35.67;21.50;;;;;;;1.69;76.38;93716.84;5091842;28;20028;-38
2022/02/16 00:53:54;;;;;;;33.05;20.50;;;;;;;1.79;75.49;93678.06;5091944;28;20027;-37
2022/02/16 00:56:20;;;;;;;29.33;19.05;;;;;;;2.12;75.40;93710.19;5092051;28;20102;-37
2022/02/16 00:58:45;;;;;;;27.33;18.25;;;;;;;2.21;75.96;93712.69;5089535;28;20386;-38
2022/02/16 01:01:10;;;;;;;31.77;19.00;;;;;;;2.22;76.49;93706.00;5091906;28;20024;-38
2022/02/16 01:03:37;;;;;;;32.13;18.48;;;;;;;2.25;76.33;93707.75;5091486;28;20524;-37
2022/02/16 01:06:03;;;;;;;30.90;18.77;;;;;;;2.26;75.62;93704.53;5091433;28;20032;-37
2022/02/16 01:08:29;;;;;;;28.67;17.15;;;;;;;2.33;75.61;93694.41;5091642;28;20028;-37
2022/02/16 01:10:54;;;;;;;33.67;18.35;;;;;;;2.45;74.70;93704.84;5091590;28;20039;-38
2022/02/16 01:13:21;;;;;;;34.28;19.65;;;;;;;2.16;73.97;93707.97;5091678;28;20432;-39
2022/02/16 01:15:46;;;;;;;34.85;19.33;;;;;;;1.84;75.75;93710.00;5091177;28;20032;-38
2022/02/16 01:18:12;;;;;;;36.70;19.70;;;;;;;1.82;76.44;93711.75;5091216;28;20046;-37
2022/02/16 01:20:38;;;;;;;30.38;18.77;;;;;;;1.95;75.98;93710.06;5091188;28;20028;-40
2022/02/16 01:23:03;;;;;;;37.97;21.52;;;;;;;2.14;75.60;93710.44;5091370;28;20028;-36
2022/02/16 01:25:29;;;;;;;41.97;22.13;;;;;;;2.33;74.02;93703.34;5091146;28;20032;-39
2022/02/16 01:27:54;;;;;;;51.83;26.45;;;;;;;2.29;74.87;93700.84;5090915;28;20023;-38
2022/02/16 01:30:20;;;;;;;33.58;19.98;;;;;;;2.44;74.09;93697.94;5091288;28;20023;-40
2022/02/16 01:32:46;;;;;;;84.85;39.47;;;;;;;2.45;74.11;93690.50;5090961;28;20421;-38
2022/02/16 01:35:11;;;;;;;57.05;28.70;;;;;;;2.39;74.11;93685.03;5090904;28;20028;-38
2022/02/16 01:37:36;;;;;;;31.98;16.40;;;;;;;2.01;74.99;93685.59;5090607;28;20136;-35
2022/02/16 01:40:03;;;;;;;25.98;15.93;;;;;;;2.08;74.50;93687.88;5090892;28;20028;-37
2022/02/16 01:42:28;;;;;;;28.75;16.40;;;;;;;1.82;74.96;93689.97;5091016;28;20028;-36
2022/02/16 01:44:53;;;;;;;26.42;16.38;;;;;;;1.83;75.30;93678.59;5091059;28;20027;-37
2022/02/16 01:47:19;;;;;;;27.00;17.52;;;;;;;1.89;75.55;93678.59;5091063;28;20031;-37
2022/02/16 01:49:44;;;;;;;34.00;20.35;;;;;;;1.97;75.34;93682.38;5090616;28;20485;-37
2022/02/16 01:52:10;;;;;;;52.78;26.33;;;;;;;1.82;75.62;93662.75;5089430;28;20023;-37
2022/02/16 01:54:36;;;;;;;44.17;22.50;;;;;;;1.76;75.81;93667.41;5090856;28;20020;-35
2022/02/16 01:57:04;;;;;;;27.88;16.80;;;;;;;1.81;75.35;93663.97;5090631;28;20027;-37
2022/02/16 01:59:31;;;;;;;29.67;16.63;;;;;;;1.86;74.77;93655.84;5090515;28;20390;-38
2022/02/16 02:01:56;;;;;;;34.13;21.27;;;;;;;1.77;75.35;93638.97;5090764;28;20048;-38
2022/02/16 02:04:22;;;;;;;38.67;23.17;;;;;;;2.00;75.62;93654.16;5108401;28;20523;-39
2022/02/16 02:06:47;;;;;;;37.92;21.50;;;;;;;1.81;75.15;93626.59;5110978;28;20535;-39
2022/02/16 02:09:14;;;;;;;28.23;18.15;;;;;;;1.59;76.09;93650.97;5110884;28;20051;-38
2022/02/16 02:11:39;;;;;;;33.03;18.13;;;;;;;1.45;75.64;93639.00;5111084;28;20420;-36
2022/02/16 02:14:06;;;;;;;28.25;17.80;;;;;;;1.32;76.78;93638.69;5110925;28;20024;-37
2022/02/16 02:16:32;;;;;;;31.10;19.50;;;;;;;1.26;77.73;93639.88;5110693;28;20027;-38
2022/02/16 02:18:57;;;;;;;25.33;17.27;;;;;;;1.42;77.50;93640.00;5110816;28;20016;-33
2022/02/16 02:21:23;;;;;;;37.75;22.17;;;;;;;1.31;76.84;93631.00;5110871;28;20412;-37
2022/02/16 02:23:50;;;;;;;30.50;17.58;;;;;;;0.87;78.31;93645.00;5110735;28;20027;-36
2022/02/16 02:26:16;;;;;;;32.42;18.40;;;;;;;0.74;79.47;93641.94;5102432;28;20016;-38
2022/02/16 02:28:42;;;;;;;27.73;15.90;;;;;;;0.94;79.93;93624.81;5101210;28;20072;-37
2022/02/16 02:31:08;;;;;;;23.63;14.60;;;;;;;1.29;78.60;93628.78;5099609;28;20020;-38
2022/02/16 02:33:34;;;;;;;27.23;15.95;;;;;;;1.45;77.45;93641.00;5100019;28;20012;-38
2022/02/16 02:36:00;;;;;;;28.60;16.08;;;;;;;1.29;77.37;93636.19;5100591;28;20023;-39
2022/02/16 02:38:26;;;;;;;30.15;17.55;;;;;;;0.91;78.47;93642.81;5098839;28;20094;-38
2022/02/16 02:40:56;;;;;;;29.88;16.65;;;;;;;0.96;78.78;93644.84;5100112;28;20019;-40
2022/02/16 02:43:22;;;;;;;26.65;16.05;;;;;;;1.10;79.47;93641.25;5101159;28;20023;-37
2022/02/16 02:45:48;;;;;;;27.63;16.42;;;;;;;1.37;78.75;93650.81;5099051;28;20023;-36
2022/02/16 02:48:13;;;;;;;27.10;16.83;;;;;;;1.45;77.44;93646.44;5099556;28;20054;-37
2022/02/16 02:50:39;;;;;;;27.15;16.48;;;;;;;1.37;78.30;93643.41;5098440;28;20016;-35
2022/02/16 02:53:04;;;;;;;28.50;16.38;;;;;;;1.39;77.40;93651.84;5090273;28;20485;-33
2022/02/16 02:55:30;;;;;;;30.98;16.02;;;;;;;1.17;78.17;93642.78;5088852;28;20498;-35
2022/02/16 02:57:55;;;;;;;28.60;16.83;;;;;;;1.48;78.79;93640.03;5090222;28;20115;-38
2022/02/16 03:00:21;;;;;;;29.92;17.08;;;;;;;1.80;77.59;93646.16;5105458;28;20493;-39
2022/02/16 03:02:46;;;;;;;23.77;15.77;;;;;;;1.83;76.97;93647.88;5110600;28;20027;-40
2022/02/16 03:05:12;;;;;;;34.70;21.23;;;;;;;1.87;76.14;93645.69;5110543;28;20019;-39
2022/02/16 03:07:39;;;;;;;48.47;26.33;;;;;;;1.84;74.57;93649.41;5109217;28;20050;-40
2022/02/16 03:10:05;;;;;;;36.65;22.90;;;;;;;1.78;74.27;93632.25;5110064;28;20066;-40
2022/02/16 03:12:30;;;;;;;42.33;23.73;;;;;;;1.86;74.71;93641.47;5110130;28;20558;-39
2022/02/16 03:14:56;;;;;;;40.30;24.90;;;;;;;1.93;74.47;93641.00;5109227;28;20027;-40
2022/02/16 03:17:21;;;;;;;33.40;21.15;;;;;;;1.69;74.85;93638.66;5110088;28;20038;-41
2022/02/16 03:19:47;;;;;;;31.30;19.35;;;;;;;1.50;75.87;93615.78;5110126;28;20077;-38
2022/02/16 03:22:12;;;;;;;35.42;19.20;;;;;;;1.57;76.29;93637.13;5113181;28;20023;-40
2022/02/16 03:24:38;;;;;;;34.95;19.55;;;;;;;1.66;76.29;93642.38;5113734;28;20019;-40
2022/02/16 03:27:03;;;;;;;29.90;18.08;;;;;;;1.32;76.60;93630.53;5114089;28;20024;-40
2022/02/16 03:29:29;;;;;;;36.38;21.55;;;;;;;1.15;78.27;93634.38;5113598;28;20111;-39
2022/02/16 03:31:54;;;;;;;32.53;19.20;;;;;;;1.22;77.08;93633.91;5113729;28;20109;-39
2022/02/16 03:34:19;;;;;;;32.65;20.02;;;;;;;1.16;78.25;93631.16;5113922;28;20031;-37
2022/02/16 03:36:45;;;;;;;34.88;19.50;;;;;;;1.12;78.82;93624.47;5103870;28;20039;-39
2022/02/16 03:39:10;;;;;;;32.42;19.05;;;;;;;1.32;78.11;93630.53;5093078;28;20040;-39
2022/02/16 03:41:36;;;;;;;28.90;17.90;;;;;;;1.38;77.60;93625.88;5093417;28;20031;-37
2022/02/16 03:44:02;;;;;;;31.92;19.15;;;;;;;1.37;77.16;93635.25;5093440;28;20046;-40
2022/02/16 03:46:27;;;;;;;30.13;17.90;;;;;;;1.07;78.29;93619.72;5093242;28;20489;-40
2022/02/16 03:48:53;;;;;;;34.65;18.98;;;;;;;1.04;77.98;93615.25;5093181;28;20021;-40
2022/02/16 03:51:19;;;;;;;28.75;17.85;;;;;;;1.14;78.24;93624.72;5093210;28;20443;-39
2022/02/16 03:53:44;;;;;;;29.80;17.38;;;;;;;0.69;78.84;93627.06;5093188;28;20054;-40
2022/02/16 03:56:10;;;;;;;123.85;46.80;;;;;;;0.53;79.92;93629.63;5104812;28;20489;-40
2022/02/16 03:58:35;;;;;;;26.02;17.05;;;;;;;0.63;81.00;93630.97;5113142;28;20156;-38
2022/02/16 04:01:01;;;;;;;27.50;16.85;;;;;;;0.90;79.55;93638.63;5113063;28;20015;-39
2022/02/16 04:03:26;;;;;;;26.88;16.45;;;;;;;1.05;79.20;93627.59;5113037;28;20027;-39
2022/02/16 04:05:52;;;;;;;29.10;16.48;;;;;;;0.87;79.30;93631.41;5113087;28;20031;-38
2022/02/16 04:08:17;;;;;;;27.42;14.45;;;;;;;0.97;79.26;93624.59;5112947;28;20016;-37
2022/02/16 04:10:42;;;;;;;25.20;16.17;;;;;;;1.14;79.31;93617.31;5113084;28;20447;-38
2022/02/16 04:13:08;;;;;;;27.10;15.63;;;;;;;0.99;78.73;93607.81;5113089;28;20551;-39
2022/02/16 04:15:35;;;;;;;27.33;15.60;;;;;;;1.16;79.10;93622.25;5113186;28;20408;-40
2022/02/16 04:18:00;;;;;;;24.75;17.08;;;;;;;0.83;79.70;93624.72;5112822;28;20020;-38
2022/02/16 04:20:26;;;;;;;26.52;16.83;;;;;;;0.80;79.25;93618.28;5113074;28;20092;-39
2022/02/16 04:22:52;;;;;;;38.75;21.92;;;;;;;0.73;78.92;93616.00;5113014;28;20024;-40
2022/02/16 04:25:17;;;;;;;35.92;20.73;;;;;;;0.96;78.17;93614.94;5112672;28;20477;-39
2022/02/16 04:27:43;;;;;;;32.17;20.63;;;;;;;0.84;78.95;93613.38;5112459;28;20028;-40
2022/02/16 04:30:09;;;;;;;26.27;16.92;;;;;;;0.85;78.78;93611.38;5112137;28;20043;-37
2022/02/16 04:32:35;;;;;;;27.73;15.82;;;;;;;0.75;78.63;93616.25;5111296;28;20172;-39
2022/02/16 04:35:00;;;;;;;24.92;15.25;;;;;;;0.89;78.31;93618.09;5112110;28;20461;-34
2022/02/16 04:37:26;;;;;;;24.38;15.35;;;;;;;0.90;78.66;93616.88;5095709;28;20026;-39
2022/02/16 04:39:51;;;;;;;24.10;15.27;;;;;;;0.89;78.96;93617.38;5091861;28;20095;-40
2022/02/16 04:42:17;;;;;;;25.23;15.10;;;;;;;0.89;79.70;93614.66;5091313;28;20030;-38
2022/02/16 04:44:42;;;;;;;28.55;17.48;;;;;;;0.77;79.35;93622.72;5091390;28;20024;-37
2022/02/16 04:47:08;;;;;;;27.02;15.07;;;;;;;1.05;77.79;93614.03;5090265;28;20020;-40
2022/02/16 04:49:34;;;;;;;25.73;14.80;;;;;;;0.64;79.61;93616.91;5091714;28;20043;-39
2022/02/16 04:51:59;;;;;;;28.40;16.52;;;;;;;0.48;80.61;93589.56;5099644;28;20085;-40
2022/02/16 04:54:25;;;;;;;25.77;15.90;;;;;;;0.86;80.18;93599.28;5111546;28;20103;-36
2022/02/16 04:56:50;;;;;;;34.53;19.88;;;;;;;0.70;78.83;93595.97;5111643;28;20023;-36
2022/02/16 04:59:16;;;;;;;24.92;15.45;;;;;;;0.41;78.97;93584.59;5111797;28;20027;-36
2022/02/16 05:01:42;;;;;;;30.40;19.58;;;;;;;0.56;79.35;93602.25;5110433;28;20027;-36
2022/02/16 05:04:08;;;;;;;33.97;19.70;;;;;;;0.52;79.39;93596.28;5111509;28;20077;-33
2022/02/16 05:06:34;;;;;;;36.35;21.77;;;;;;;0.54;80.20;93601.25;5111362;28;20031;-36
2022/02/16 05:09:00;;;;;;;32.47;20.85;;;;;;;0.77;79.79;93600.97;5110844;28;20034;-34
2022/02/16 05:11:26;;;;;;;36.65;21.65;;;;;;;0.83;80.34;93592.09;5111186;28;20051;-36
2022/02/16 05:13:52;;;;;;;29.63;20.25;;;;;;;0.98;79.60;93596.19;5111147;28;20512;-36
2022/02/16 05:16:17;;;;;;;51.15;29.50;;;;;;;0.80;79.28;93612.84;5111629;28;20023;-36
2022/02/16 05:18:43;;;;;;;61.92;33.70;;;;;;;0.76;78.97;93613.06;5111242;28;20023;-35
2022/02/16 05:21:08;;;;;;;48.63;28.30;;;;;;;0.85;79.62;93606.69;5111198;28;20035;-34
2022/02/16 05:23:34;;;;;;;33.75;20.75;;;;;;;0.77;80.32;93609.13;5111117;28;20024;-34
2022/02/16 05:25:59;;;;;;;32.45;18.77;;;;;;;0.82;80.89;93596.06;5111242;28;20023;-36
2022/02/16 05:28:24;;;;;;;31.95;18.70;;;;;;;0.94;80.27;93592.19;5111139;28;20027;-37
2022/02/16 05:30:50;;;;;;;41.45;22.77;;;;;;;0.86;80.16;93591.91;5111218;28;20032;-38
2022/02/16 05:33:15;;;;;;;28.75;18.95;;;;;;;0.98;80.86;93582.59;5111350;28;20026;-38
2022/02/16 05:35:41;;;;;;;39.03;23.50;;;;;;;0.88;80.42;93586.72;5110786;28;20023;-38
2022/02/16 05:38:07;;;;;;;47.78;26.38;;;;;;;1.06;80.12;93583.63;5110612;28;20051;-36
2022/02/16 05:40:33;;;;;;;39.95;22.73;;;;;;;1.14;80.12;93586.66;5110866;28;20036;-38
2022/02/16 05:42:59;;;;;;;41.55;24.05;;;;;;;1.28;79.61;93588.47;5110796;28;20019;-36
2022/02/16 05:45:26;;;;;;;40.78;21.85;;;;;;;1.41;79.63;93597.69;5110891;28;20016;-37
2022/02/16 05:47:51;;;;;;;33.40;21.65;;;;;;;1.38;79.17;93600.66;5110999;28;20096;-40
2022/02/16 05:50:17;;;;;;;35.15;21.30;;;;;;;1.43;79.43;93599.91;5110550;28;20477;-37
2022/02/16 05:52:43;;;;;;;36.13;21.70;;;;;;;1.57;79.61;93598.28;5110936;28;20015;-40
2022/02/16 05:55:08;;;;;;;40.50;22.48;;;;;;;1.44;79.54;93602.19;5110412;28;20485;-36
2022/02/16 05:57:35;;;;;;;45.08;25.20;;;;;;;1.73;78.62;93605.78;5110966;28;20096;-37
2022/02/16 06:00:01;;;;;;;45.63;28.73;;;;;;;1.91;79.11;93595.22;5110891;28;20100;-37
2022/02/16 06:02:26;;;;;;;47.63;26.83;;;;;;;2.17;77.58;93600.50;5110800;28;20080;-38
2022/02/16 06:04:52;;;;;;;35.47;22.23;;;;;;;2.27;77.64;93596.34;5110301;28;20072;-36
2022/02/16 06:07:17;;;;;;;32.53;21.55;;;;;;;2.35;77.26;93602.03;5110743;28;20041;-37
2022/02/16 06:09:42;;;;;;;36.05;22.15;;;;;;;2.50;77.33;93594.38;5110175;27;20019;-37
2022/02/16 06:12:08;;;;;;;37.20;21.35;;;;;;;2.61;77.28;93606.06;5110401;28;20088;-40
2022/02/16 06:14:33;;;;;;;37.75;22.42;;;;;;;2.87;76.49;93601.13;5110868;28;20019;-36
2022/02/16 06:16:59;;;;;;;37.85;24.77;;;;;;;3.03;75.58;93608.56;5110647;28;20023;-40
2022/02/16 06:19:24;;;;;;;38.72;23.33;;;;;;;2.61;76.75;93600.59;5110590;28;20024;-35
2022/02/16 06:21:50;;;;;;;46.05;27.05;;;;;;;2.43;77.72;93603.78;5110297;28;20020;-37
2022/02/16 06:24:16;;;;;;;43.10;26.20;;;;;;;2.73;77.49;93606.81;5110100;28;20024;-38
2022/02/16 06:26:42;;;;;;;45.75;26.35;;;;;;;2.96;76.99;93600.13;5110063;28;20051;-38
2022/02/16 06:29:08;;;;;;;41.72;25.48;;;;;;;3.40;75.10;93610.28;5110118;28;20122;-36
2022/02/16 06:31:34;;;;;;;46.47;26.40;;;;;;;3.67;74.52;93610.22;5110594;28;20438;-37
2022/02/16 06:33:59;;;;;;;48.35;23.45;;;;;;;3.74;73.14;93607.00;5110413;28;20020;-34
2022/02/16 06:36:25;;;;;;;73.88;32.83;;;;;;;4.06;72.77;93612.09;5102794;28;20638;-38
2022/02/16 06:38:50;;;;;;;24.02;16.88;;;;;;;4.21;71.87;93610.53;5089567;28;20123;-39
2022/02/16 06:41:16;;;;;;;28.10;15.25;;;;;;;4.52;69.94;93606.66;5089822;28;20085;-39
2022/02/16 06:43:42;;;;;;;30.67;15.13;;;;;;;4.70;69.13;93599.84;5097833;28;20064;-37
2022/02/16 06:46:07;;;;;;;40.05;23.40;;;;;;;4.87;69.58;93600.47;5098969;28;20013;-39
2022/02/16 06:48:33;;;;;;;39.80;24.27;;;;;;;5.00;69.87;93600.63;5100874;28;20077;-41
2022/02/16 06:50:58;;;;;;;58.80;33.30;;;;;;;5.25;68.42;93597.44;5100543;28;20020;-41
2022/02/16 06:53:24;;;;;;;30.20;20.10;;;;;;;5.28;68.31;93601.88;5098480;28;20008;-39
2022/02/16 06:55:50;;;;;;;23.77;14.75;;;;;;;5.33;66.75;93595.63;5099680;28;20162;-40
2022/02/16 06:58:16;;;;;;;19.73;12.55;;;;;;;5.30;65.20;93599.38;5104075;28;20028;-39
2022/02/16 07:00:42;;;;;;;25.33;13.20;;;;;;;5.29;65.30;93602.63;5101892;28;20027;-39
2022/02/16 07:03:07;;;;;;;22.30;13.52;;;;;;;5.52;65.28;93614.88;5100892;28;20035;-40
2022/02/16 07:05:33;;;;;;;20.38;14.10;;;;;;;5.44;66.64;93613.94;5101599;28;20020;-41
2022/02/16 07:07:58;;;;;;;23.73;12.88;;;;;;;5.65;65.87;93614.25;5101930;28;20034;-39
2022/02/16 07:10:25;;;;;;;18.30;12.60;;;;;;;5.61;64.06;93611.78;5094719;28;20031;-37
2022/02/16 07:12:51;;;;;;;25.25;14.07;;;;;;;5.56;64.94;93617.31;5099951;28;20036;-37
2022/02/16 07:15:17;;;;;;;23.25;13.23;;;;;;;5.73;64.90;93615.16;5101512;28;20023;-40
2022/02/16 07:17:43;;;;;;;20.45;13.27;;;;;;;5.85;64.58;93617.31;5098513;28;20023;-39
2022/02/16 07:20:13;;;;;;;24.85;14.48;;;;;;;5.95;63.85;93610.25;5095825;28;20738;-37
2022/02/16 07:22:44;;;;;;;20.60;13.27;;;;;;;5.94;63.53;93610.72;5101590;28;20128;-40
2022/02/16 07:25:10;;;;;;;16.27;12.00;;;;;;;5.99;63.16;93613.44;5098427;28;20031;-38
2022/02/16 07:27:36;;;;;;;18.00;11.95;;;;;;;5.98;63.49;93611.19;5103045;28;20027;-38
2022/02/16 07:30:04;;;;;;;20.00;11.18;;;;;;;6.07;62.96;93608.09;5095511;28;20035;-39
2022/02/16 07:32:29;;;;;;;18.70;10.40;;;;;;;6.21;61.95;93590.50;5089328;28;20714;-39
2022/02/16 07:34:55;;;;;;;17.25;11.35;;;;;;;6.43;60.78;93594.97;5089798;28;20016;-40
2022/02/16 07:37:20;;;;;;;15.68;10.23;;;;;;;6.65;59.33;93589.16;5091533;28;20031;-38
2022/02/16 07:39:46;;;;;;;19.45;10.50;;;;;;;6.73;59.30;93590.06;5090709;28;20032;-39
2022/02/16 07:42:11;;;;;;;17.88;11.07;;;;;;;7.02;59.97;93583.63;5090192;28;20024;-40
2022/02/16 07:44:38;;;;;;;19.42;10.18;;;;;;;7.38;59.39;93573.84;5101864;28;20077;-35
2022/02/16 07:47:08;;;;;;;17.27;9.82;;;;;;;7.83;56.40;93578.53;5098262;28;20015;-38
2022/02/16 07:49:34;;;;;;;14.90;9.70;;;;;;;8.38;54.88;93575.47;5099140;28;20024;-38
2022/02/16 07:51:59;;;;;;;14.85;9.32;;;;;;;8.59;53.26;93572.78;5100079;28;20022;-39
2022/02/16 07:54:25;;;;;;;12.02;8.95;;;;;;;8.31;53.44;93532.13;5100255;28;20016;-40
2022/02/16 07:56:50;;;;;;;20.65;9.70;;;;;;;8.36;53.75;93566.25;5100151;28;20089;-39
2022/02/16 07:59:16;;;;;;;11.85;9.27;;;;;;;8.45;52.65;93562.31;5098593;28;20020;-38
2022/02/16 08:01:41;;;;;;;15.93;8.65;;;;;;;8.51;53.24;93569.19;5100201;28;20498;-39
2022/02/16 08:04:16;;;;;;;14.25;9.68;;;;;;;8.72;52.77;93563.75;5100523;28;20046;-41
2022/02/16 08:18:49;;;;;;;18.02;12.60;;;;;;;9.38;52.53;93567.72;5117021;27;20622;-31
2022/02/16 08:21:15;;;;;;;19.63;11.10;;;;;;;9.37;51.87;93566.25;5113970;28;20036;-31
2022/02/16 08:23:42;;;;;;;23.08;12.85;;;;;;;9.10;52.01;93576.66;5118169;27;20019;-31
2022/02/16 08:26:07;;;;;;;22.58;14.40;;;;;;;9.01;53.28;93579.84;5115937;28;20024;-31
2022/02/16 08:28:33;;;;;;;25.45;13.68;;;;;;;8.69;53.52;93573.81;5118338;27;20031;-31
2022/02/16 08:30:58;;;;;;;20.88;12.98;;;;;;;8.75;54.39;93568.94;5115348;27;20019;-31
2022/02/16 08:33:24;;;;;;;26.40;14.32;;;;;;;9.07;53.60;93569.44;5110537;28;20510;-31
2022/02/16 08:35:49;;;;;;;21.27;13.65;;;;;;;9.36;53.72;93566.78;5113649;28;20036;-31
2022/02/16 08:38:15;;;;;;;12.45;9.85;;;;;;;9.52;51.07;93569.13;5107661;28;20408;-31
2022/02/16 08:40:40;;;;;;;17.52;11.18;;;;;;;9.39;51.32;93566.44;5117305;28;20024;-31
2022/02/16 08:43:06;;;;;;;16.67;10.40;;;;;;;9.47;51.15;93552.72;5116618;27;20404;-31
2022/02/16 08:45:31;;;;;;;18.75;10.77;;;;;;;9.84;51.17;93553.00;5115487;28;20019;-31
2022/02/16 08:47:57;;;;;;;13.23;9.68;;;;;;;10.03;50.57;93557.56;5107024;28;20103;-37
2022/02/16 08:50:22;;;;;;;11.38;9.27;;;;;;;10.68;47.13;93556.25;5109870;28;20019;-40
2022/02/16 08:52:47;;;;;;;17.55;10.13;;;;;;;11.30;45.40;93540.72;5115052;28;20022;-42
2022/02/16 08:55:13;;;;;;;15.02;10.00;;;;;;;11.93;43.49;93547.19;5115417;27;20031;-42
2022/02/16 08:57:40;;;;;;;10.85;8.77;;;;;;;11.82;44.90;93542.06;5122565;28;20020;-39
2022/02/16 09:00:08;;;;;;;14.48;8.82;;;;;;;11.50;43.49;93533.53;5116713;27;20102;-39
2022/02/16 09:02:35;;;;;;;14.27;8.80;;;;;;;11.66;45.02;93523.22;5114693;28;20500;-36
2022/02/16 09:05:01;;;;;;;10.95;8.23;;;;;;;11.96;43.88;93528.75;5115066;27;20031;-38
2022/02/16 09:07:30;;;;;;;13.13;7.55;;;;;;;12.30;42.78;93540.09;5113345;27;20030;-38
2022/02/16 09:09:58;;;;;;;16.25;8.07;;;;;;;12.39;41.93;93533.28;5113329;28;20020;-39
2022/02/16 09:12:25;;;;;;;10.00;7.80;;;;;;;12.36;41.25;93545.47;5119043;27;20110;-39
2022/02/16 09:14:50;;;;;;;18.08;8.20;;;;;;;12.76;41.08;93546.22;5124972;27;20091;-38
2022/02/16 09:17:16;;;;;;;10.50;7.80;;;;;;;13.67;40.00;93546.44;5124378;27;20044;-38
2022/02/16 09:19:42;;;;;;;11.52;7.78;;;;;;;15.02;37.40;93535.28;5108199;27;20028;-36
2022/02/16 09:22:08;;;;;;;10.25;7.18;;;;;;;15.12;35.94;93534.03;5099781;28;20551;-39
2022/02/16 09:24:34;;;;;;;14.93;8.55;;;;;;;15.43;36.37;93528.03;5098949;28;20583;-40
2022/02/16 09:27:00;;;;;;;12.35;9.85;;;;;;;16.19;35.64;93536.69;5098052;28;20024;-40
2022/02/16 09:29:25;;;;;;;18.55;11.68;;;;;;;16.20;34.24;93534.63;5096139;28;20053;-40
2022/02/16 09:31:53;;;;;;;15.00;9.40;;;;;;;15.91;34.80;93534.56;5100124;28;20043;-39
2022/02/16 09:34:19;;;;;;;11.20;8.10;;;;;;;15.35;35.12;93542.06;5098867;28;20054;-38
2022/02/16 09:36:45;;;;;;;9.68;6.97;;;;;;;15.49;34.94;93548.00;5100476;28;20024;-40
2022/02/16 09:39:10;;;;;;;13.85;8.25;;;;;;;15.68;36.12;93539.75;5099917;28;20072;-39
2022/02/16 09:41:37;;;;;;;9.95;7.57;;;;;;;16.29;33.73;93543.00;5098895;28;20139;-40
2022/02/16 09:44:02;;;;;;;10.63;7.50;;;;;;;16.28;34.52;93547.09;5100643;28;20564;-41
2022/02/16 09:46:28;;;;;;;8.90;6.72;;;;;;;15.65;34.16;93536.09;5098120;28;20020;-40
2022/02/16 09:48:55;;;;;;;15.38;7.75;;;;;;;15.99;33.66;93506.56;5098647;28;20644;-40
2022/02/16 09:51:21;;;;;;;8.85;6.90;;;;;;;16.45;33.46;93521.91;5098693;28;20085;-40
2022/02/16 09:53:47;;;;;;;11.00;6.68;;;;;;;16.61;32.98;93514.72;5100246;28;20047;-41
2022/02/16 09:56:12;;;;;;;9.80;7.55;;;;;;;16.29;33.99;93517.91;5100168;28;20099;-41
2022/02/16 09:58:38;;;;;;;11.85;8.68;;;;;;;16.30;34.11;93510.28;5098559;28;20059;-41
2022/02/16 10:01:03;;;;;;;13.52;8.13;;;;;;;16.23;34.70;93511.91;5100314;28;20076;-41
2022/02/16 10:03:29;;;;;;;11.90;9.27;;;;;;;16.52;34.03;93501.53;5097965;28;20088;-41
2022/02/16 10:05:54;;;;;;;15.00;9.02;;;;;;;17.32;33.95;93503.78;5095030;28;20454;-41
2022/02/16 10:08:42;;;;;;;12.98;8.88;;;;;;;17.24;32.58;93499.69;5098430;28;20019;-39
2022/02/16 10:11:08;;;;;;;10.67;7.93;;;;;;;17.49;31.75;93496.53;5100716;28;20103;-41
2022/02/16 10:13:34;;;;;;;12.43;7.80;;;;;;;16.22;33.99;93485.34;5100944;28;20118;-40
2022/02/16 10:16:00;;;;;;;14.13;8.18;;;;;;;16.29;34.86;93492.09;5101767;28;20029;-40
2022/02/16 10:18:26;;;;;;;12.00;7.20;;;;;;;16.46;33.38;93483.59;5100269;28;20043;-40
2022/02/16 10:21:05;;;;;;;10.00;7.38;;;;;;;16.77;33.19;93481.72;5100824;28;20028;-40
2022/02/16 10:23:42;;;;;;;13.98;7.85;;;;;;;17.51;32.62;93477.88;5101394;28;20385;-38
2022/02/16 10:26:08;;;;;;;14.15;7.20;;;;;;;17.86;32.11;93473.31;5101269;28;20510;-41
2022/02/16 10:28:42;;;;;;;13.13;7.93;;;;;;;18.15;32.57;93462.69;5100073;28;20031;-40
2022/02/16 10:31:09;;;;;;;8.25;7.10;;;;;;;17.90;31.31;93470.06;5094679;28;20032;-35
2022/02/16 10:33:46;;;;;;;11.43;6.68;;;;;;;17.13;32.15;93461.25;5094135;28;20023;-38
2022/02/16 10:36:19;;;;;;;11.32;8.10;;;;;;;16.74;32.72;93466.16;5101945;28;20034;-39
2022/02/16 10:39:10;;;;;;;11.45;7.32;;;;;;;15.45;34.46;93458.66;5102377;28;20021;-40
2022/02/16 10:41:53;;;;;;;8.88;7.03;;;;;;;14.13;37.13;93455.91;5096994;28;20471;-38
2022/02/16 10:44:27;;;;;;;12.00;7.75;;;;;;;13.40;39.18;93463.09;5102040;28;20019;-35
2022/02/16 10:47:01;;;;;;;12.18;8.85;;;;;;;13.21;39.77;93460.06;5096391;28;20018;-40
2022/02/16 10:49:28;;;;;;;12.02;8.32;;;;;;;12.93;40.91;93461.16;5096489;28;20141;-40
2022/02/16 10:52:14;;;;;;;10.60;7.20;;;;;;;12.77;41.87;93451.50;5099297;28;20020;-40
2022/02/16 10:54:51;;;;;;;10.55;7.10;;;;;;;12.28;42.65;93450.63;5098679;28;20523;-38
2022/02/16 10:57:17;;;;;;;11.73;7.78;;;;;;;12.09;44.23;93453.81;5097480;28;20034;-39
2022/02/16 10:59:42;;;;;;;10.10;7.78;;;;;;;11.83;43.72;93445.97;5101653;28;20424;-40
2022/02/16 11:02:08;;;;;;;9.43;7.38;;;;;;;11.96;44.09;93438.19;5108458;28;20756;-39
2022/02/16 11:04:37;;;;;;;13.68;8.55;;;;;;;12.03;44.70;93433.91;5097626;28;20561;-37
2022/02/16 11:07:04;;;;;;;12.43;8.75;;;;;;;12.27;43.75;93436.06;5101718;28;20072;-40
2022/02/16 11:09:34;;;;;;;9.85;7.25;;;;;;;12.31;43.62;93439.16;5101119;28;20038;-37
2022/02/16 11:12:01;;;;;;;10.77;8.82;;;;;;;12.36;43.30;93434.72;5098594;28;20023;-39
2022/02/16 11:14:31;;;;;;;12.48;8.30;;;;;;;12.50;43.64;93427.63;5110923;28;20381;-36
2022/02/16 11:16:56;;;;;;;11.23;8.45;;;;;;;12.28;44.23;93412.59;5101598;28;20101;-38
2022/02/16 11:19:35;;;;;;;10.68;7.80;;;;;;;12.76;42.72;93405.69;5101100;28;20745;-39
2022/02/16 11:22:08;;;;;;;10.00;8.25;;;;;;;13.14;42.22;93407.47;5099608;28;20095;-39
2022/02/16 11:24:38;;;;;;;13.48;8.23;;;;;;;13.07;43.63;93411.03;5097757;28;20043;-39
2022/02/16 11:27:29;;;;;;;15.05;8.65;;;;;;;13.58;43.09;93403.56;5107957;28;20051;-39
2022/02/16 11:29:56;;;;;;;12.75;8.32;;;;;;;13.89;40.32;93392.16;5109977;28;20586;-40
2022/02/16 11:32:26;;;;;;;13.40;8.32;;;;;;;13.73;41.46;93404.72;5110423;28;20026;-39
2022/02/16 11:35:16;;;;;;;11.57;8.23;;;;;;;13.73;41.56;93394.34;5110013;28;20080;-40